Terminal Aerodrome Forecast
Issued by NWS Sioux Falls, SD

Home | Current Version | Previous Version | Text Only | Print | Product List | Glossary Off
Versions: 1 2 3 4 5 6 7 8 9 10 11 12 13 14 15 16 17 18 19 20 21 22 23 24 25

000
FTUS43 KFSD 010540
TAFSUX
TAF
KSUX 010540Z 0106/0206 15007KT P6SM SCT100
     FM011100 17007KT P6SM OVC070
      TEMPO 0112/0114 P6SM -SHRA BKN050
     FM011700 21009KT P6SM SCT080
     FM020200 18005KT P6SM SCT060=

USA.gov is the U.S. government's official web portal to all federal, state and local government web resources and services.